Time;durP1;ratioP1;P1;durP2;ratioP2;P2;SDS_P1;SDS_P2;PMS_P1;PMS_P2;Temp;Humidity;BMP_temperature;BMP_pressure;BME280_temperature;BME280_humidity;BME280_pressure;Samples;Min_cycle;Max_cycle;Signal;HPM_P1;HPM_P2
2022/05/03 00:00:24;;;;;;;6.07;4.15;;;13.20;99.90;;;;;;4935822;29;20221;-86
2022/05/03 00:03:01;;;;;;;4.18;3.78;;;13.10;99.90;;;;;;4935911;29;20256;-86
2022/05/03 00:05:37;;;;;;;4.88;3.60;;;13.10;99.90;;;;;;4935015;29;20281;-85
2022/05/03 00:08:10;;;;;;;3.70;3.38;;;13.10;99.90;;;;;;4936050;29;20300;-86
2022/05/03 00:10:45;;;;;;;5.43;2.92;;;13.00;99.90;;;;;;4935879;29;20284;-85
2022/05/03 00:13:20;;;;;;;3.53;3.22;;;13.00;99.90;;;;;;4936091;29;20317;-85
2022/05/03 00:15:50;;;;;;;3.70;3.15;;;12.90;99.90;;;;;;4936130;29;20233;-86
2022/05/03 00:18:19;;;;;;;3.55;3.22;;;12.90;99.90;;;;;;4936035;29;20269;-85
2022/05/03 00:20:48;;;;;;;4.25;3.92;;;12.80;99.90;;;;;;4935165;29;20221;-85
2022/05/03 00:23:17;;;;;;;3.90;3.60;;;12.80;99.90;;;;;;4936025;29;20234;-86
2022/05/03 00:25:47;;;;;;;4.10;3.80;;;12.80;99.90;;;;;;4935956;29;20241;-85
2022/05/03 00:28:17;;;;;;;4.07;3.78;;;12.70;99.90;;;;;;4935952;29;20221;-85
2022/05/03 00:30:46;;;;;;;3.90;3.60;;;12.70;99.90;;;;;;4935643;29;20293;-85
2022/05/03 00:33:16;;;;;;;5.18;4.68;;;12.70;99.90;;;;;;4935234;29;20236;-86
2022/05/03 00:35:44;;;;;;;4.10;3.80;;;12.60;99.90;;;;;;4935845;29;20312;-85
2022/05/03 00:38:13;;;;;;;4.75;4.35;;;12.60;99.90;;;;;;4935771;29;20237;-85
2022/05/03 00:40:47;;;;;;;5.00;4.57;;;12.60;99.90;;;;;;4935418;29;20283;-85
2022/05/03 00:43:24;;;;;;;4.03;3.65;;;12.50;99.90;;;;;;4935447;29;20300;-85
2022/05/03 00:45:59;;;;;;;5.13;4.70;;;12.50;99.90;;;;;;4935845;29;20350;-85
2022/05/03 00:48:46;;;;;;;4.13;3.83;;;12.50;99.90;;;;;;4935787;29;20233;-85
2022/05/03 00:51:17;;;;;;;4.55;4.15;;;12.40;99.90;;;;;;4935402;29;20205;-86
2022/05/03 00:54:04;;;;;;;3.97;3.67;;;12.40;99.90;;;;;;4935411;29;20209;-86
2022/05/03 00:56:49;;;;;;;4.93;4.53;;;12.40;99.90;;;;;;4935694;29;20209;-86
2022/05/03 00:59:37;;;;;;;4.43;4.03;;;12.40;99.90;;;;;;4935507;29;20297;-85
2022/05/03 01:02:07;;;;;;;3.65;3.35;;;12.40;99.90;;;;;;4935270;29;20261;-86
2022/05/03 01:04:44;;;;;;;4.35;3.92;;;12.30;99.90;;;;;;4935813;29;20233;-86
2022/05/03 01:07:24;;;;;;;3.90;3.60;;;12.30;99.90;;;;;;4935684;29;20218;-85
2022/05/03 01:10:05;;;;;;;3.88;3.58;;;12.30;99.90;;;;;;4935584;29;20284;-86
2022/05/03 01:12:51;;;;;;;3.88;3.55;;;12.30;99.90;;;;;;4935153;29;20312;-86
2022/05/03 01:15:26;;;;;;;3.85;3.53;;;12.30;99.90;;;;;;4935254;29;20244;-86
2022/05/03 01:18:10;;;;;;;4.60;4.18;;;12.20;99.90;;;;;;4937571;29;20300;-86
2022/05/03 01:20:50;;;;;;;3.83;3.58;;;12.20;99.90;;;;;;4938764;29;20324;-86
2022/05/03 01:23:52;;;;;;;5.72;4.18;;;12.20;99.90;;;;;;4938943;29;20225;-86
2022/05/03 01:26:52;;;;;;;4.63;4.22;;;12.20;99.90;;;;;;4939106;29;20209;-86
2022/05/03 01:29:32;;;;;;;4.53;4.10;;;12.10;99.90;;;;;;4939341;29;20230;-86
2022/05/03 01:32:02;;;;;;;4.95;4.50;;;12.20;99.90;;;;;;4938950;29;20226;-86
2022/05/03 01:34:31;;;;;;;6.35;3.97;;;12.10;99.90;;;;;;4938919;29;20244;-86
2022/05/03 01:37:40;;;;;;;4.53;4.10;;;12.10;99.90;;;;;;4938912;29;20209;-86
2022/05/03 01:40:16;;;;;;;4.57;4.18;;;12.00;99.90;;;;;;4934076;29;20284;-86
2022/05/03 01:43:11;;;;;;;3.80;3.50;;;12.10;99.90;;;;;;4938263;29;20340;-85
2022/05/03 01:45:58;;;;;;;3.95;3.65;;;12.00;99.90;;;;;;4938466;29;20240;-86
2022/05/03 01:51:46;;;;;;;4.00;3.70;;;12.00;99.90;;;;;;4938265;29;20206;-86
2022/05/03 01:54:32;;;;;;;3.80;3.50;;;12.00;99.90;;;;;;4938530;29;20308;-85
2022/05/03 01:57:10;;;;;;;4.10;3.70;;;12.00;99.90;;;;;;4938345;29;20214;-86
2022/05/03 01:59:50;;;;;;;3.80;3.50;;;12.00;99.90;;;;;;4938290;29;20273;-86
2022/05/03 02:02:27;;;;;;;7.57;3.97;;;12.00;99.90;;;;;;4937996;29;20234;-86
2022/05/03 02:05:04;;;;;;;5.38;3.63;;;12.00;99.90;;;;;;4938380;29;20209;-86
2022/05/03 02:07:55;;;;;;;4.93;3.70;;;12.00;99.90;;;;;;4938248;29;20252;-85
2022/05/03 02:10:42;;;;;;;3.47;3.22;;;12.00;99.90;;;;;;4937949;29;20301;-85
2022/05/03 02:14:44;;;;;;;3.35;3.05;;;12.00;99.90;;;;;;4938330;29;20328;-86
2022/05/03 02:16:29;;;;;;;4.30;4.00;;;11.90;99.90;;;;;;4938186;29;20206;-86
2022/05/03 02:19:20;;;;;;;3.58;3.28;;;12.00;99.90;;;;;;4938362;29;20249;-86
2022/05/03 02:21:57;;;;;;;5.32;3.97;;;11.90;99.90;;;;;;4937717;29;20257;-85
2022/05/03 02:24:36;;;;;;;3.45;3.15;;;11.90;99.90;;;;;;4937694;29;20225;-86
2022/05/03 02:27:11;;;;;;;4.13;3.45;;;11.90;99.90;;;;;;4938644;29;20244;-86
2022/05/03 02:29:45;;;;;;;3.20;3.00;;;11.80;99.90;;;;;;4936985;29;20209;-85
2022/05/03 02:32:19;;;;;;;2.80;2.60;;;11.90;99.90;;;;;;4937664;29;20237;-85
2022/05/03 02:34:54;;;;;;;4.05;3.65;;;11.80;99.90;;;;;;4937756;29;20297;-85
2022/05/03 02:37:25;;;;;;;6.75;3.20;;;11.80;99.90;;;;;;4937655;29;20292;-85
2022/05/03 02:40:00;;;;;;;3.47;3.17;;;11.80;99.90;;;;;;4937963;29;20289;-85
2022/05/03 02:42:29;;;;;;;3.63;3.33;;;11.80;99.90;;;;;;4937131;29;20328;-86
2022/05/03 02:45:00;;;;;;;4.07;3.78;;;11.80;99.90;;;;;;4937695;29;20241;-85
2022/05/03 02:47:35;;;;;;;5.75;3.78;;;11.80;99.90;;;;;;4937362;29;20269;-85
2022/05/03 02:50:09;;;;;;;3.05;2.85;;;11.80;99.90;;;;;;4937616;29;20297;-85
2022/05/03 02:52:57;;;;;;;3.75;3.13;;;11.80;99.90;;;;;;4937750;29;20253;-85
2022/05/03 02:55:37;;;;;;;5.55;3.47;;;11.70;99.90;;;;;;4937321;29;20301;-85
2022/05/03 02:58:11;;;;;;;3.17;2.95;;;11.70;99.90;;;;;;4937778;29;20205;-86
2022/05/03 03:04:04;;;;;;;3.38;3.17;;;11.50;99.90;;;;;;4937446;29;20309;-85
2022/05/03 03:06:37;;;;;;;3.45;3.17;;;11.40;99.90;;;;;;4937621;29;20306;-85
2022/05/03 03:09:08;;;;;;;4.38;3.75;;;11.30;99.90;;;;;;4937255;29;20224;-85
2022/05/03 03:11:52;;;;;;;3.83;3.53;;;11.30;99.90;;;;;;4936566;29;20222;-85
2022/05/03 03:14:31;;;;;;;3.20;2.90;;;11.30;99.90;;;;;;4937120;29;20213;-85
2022/05/03 03:17:05;;;;;;;3.83;3.53;;;11.30;99.90;;;;;;4937411;29;20248;-85
2022/05/03 03:19:50;;;;;;;3.80;3.42;;;11.30;99.90;;;;;;4937420;29;20212;-85
2022/05/03 03:22:22;;;;;;;3.25;3.03;;;11.30;99.90;;;;;;4924754;29;20233;-85
2022/05/03 03:24:50;;;;;;;3.15;2.90;;;11.30;99.90;;;;;;4937226;29;20233;-85
2022/05/03 03:27:22;;;;;;;3.10;2.83;;;11.30;99.90;;;;;;4936490;29;20234;-85
2022/05/03 03:29:56;;;;;;;3.70;3.40;;;11.30;99.90;;;;;;4936929;29;20311;-85
2022/05/03 03:32:25;;;;;;;4.35;4.03;;;11.30;99.90;;;;;;4936762;29;20310;-85
2022/05/03 03:34:56;;;;;;;4.40;4.00;;;11.20;99.90;;;;;;4936977;29;20265;-85
2022/05/03 03:37:26;;;;;;;4.22;3.92;;;11.20;99.90;;;;;;4936537;29;20212;-85
2022/05/03 03:39:55;;;;;;;4.25;3.85;;;11.20;99.90;;;;;;4935807;29;20248;-85
2022/05/03 03:42:24;;;;;;;3.47;3.22;;;11.20;99.90;;;;;;4935979;29;20318;-85
2022/05/03 03:44:53;;;;;;;6.55;3.10;;;11.20;99.90;;;;;;4936463;29;20297;-85
2022/05/03 03:47:22;;;;;;;4.00;3.45;;;11.20;99.90;;;;;;4936610;29;20293;-85
2022/05/03 03:49:51;;;;;;;4.35;3.97;;;11.20;99.90;;;;;;4936119;29;20237;-85
2022/05/03 03:52:20;;;;;;;3.65;3.35;;;11.10;99.90;;;;;;4936666;29;20233;-85
2022/05/03 03:54:50;;;;;;;3.63;3.33;;;11.10;99.90;;;;;;4936395;29;20206;-85
2022/05/03 03:57:26;;;;;;;3.55;3.25;;;11.10;99.90;;;;;;4936425;29;20210;-85
2022/05/03 03:59:55;;;;;;;3.28;3.03;;;11.10;99.90;;;;;;4936503;29;20209;-85
2022/05/03 04:02:24;;;;;;;3.72;3.40;;;11.10;99.90;;;;;;4935730;29;20313;-85
2022/05/03 04:04:54;;;;;;;3.95;3.63;;;11.10;99.90;;;;;;4936018;29;20234;-85
2022/05/03 04:07:22;;;;;;;6.00;4.47;;;11.00;99.90;;;;;;4936043;29;20288;-85
2022/05/03 04:09:52;;;;;;;3.25;2.95;;;11.00;99.90;;;;;;4936226;29;20277;-85
2022/05/03 04:12:21;;;;;;;5.00;4.05;;;11.10;99.90;;;;;;4935631;29;20229;-85
2022/05/03 04:14:50;;;;;;;3.15;2.95;;;11.10;99.90;;;;;;4935772;29;20237;-84
2022/05/03 04:17:18;;;;;;;3.22;3.03;;;11.10;99.90;;;;;;4936182;29;20301;-85
2022/05/03 04:19:47;;;;;;;4.35;3.95;;;11.10;99.90;;;;;;4936023;29;20233;-85
2022/05/03 04:22:28;;;;;;;4.00;3.65;;;11.20;99.90;;;;;;4935538;29;20242;-85
2022/05/03 04:24:59;;;;;;;3.92;3.53;;;11.20;99.90;;;;;;4936084;29;20252;-85
2022/05/03 04:27:28;;;;;;;4.18;3.50;;;11.20;99.90;;;;;;4936234;29;20265;-85
2022/05/03 04:29:58;;;;;;;4.30;3.90;;;11.20;99.90;;;;;;4935892;29;20244;-85
2022/05/03 04:32:29;;;;;;;4.80;4.40;;;11.30;99.90;;;;;;4935486;29;20234;-86
2022/05/03 04:34:59;;;;;;;5.90;4.15;;;11.30;99.90;;;;;;4935343;29;20264;-86
2022/05/03 04:37:27;;;;;;;4.80;4.40;;;11.30;99.90;;;;;;4935676;29;20240;-85
2022/05/03 04:39:57;;;;;;;4.13;3.78;;;11.30;99.90;;;;;;4935273;29;20212;-85
2022/05/03 04:42:26;;;;;;;4.35;4.03;;;11.40;99.90;;;;;;4935405;29;20251;-85
2022/05/03 04:44:54;;;;;;;3.75;3.38;;;11.40;99.90;;;;;;4935634;29;20273;-85
2022/05/03 04:47:23;;;;;;;4.82;4.43;;;11.40;99.90;;;;;;4935316;29;20206;-85
2022/05/03 04:49:51;;;;;;;5.22;4.57;;;11.40;99.90;;;;;;4935532;29;20237;-85
2022/05/03 04:52:20;;;;;;;4.28;3.95;;;11.50;99.90;;;;;;4935154;29;20312;-85
2022/05/03 04:54:49;;;;;;;4.50;4.07;;;11.50;99.90;;;;;;4935517;29;20304;-85
2022/05/03 04:57:18;;;;;;;4.40;4.00;;;11.60;99.90;;;;;;4935469;29;20288;-85
2022/05/03 04:59:47;;;;;;;4.60;4.20;;;11.60;99.90;;;;;;4935250;29;20238;-85
2022/05/03 05:02:15;;;;;;;5.03;4.57;;;11.60;99.90;;;;;;4935198;29;20288;-85
2022/05/03 05:04:44;;;;;;;4.78;4.38;;;11.70;99.90;;;;;;4935418;29;20223;-85
2022/05/03 05:07:13;;;;;;;4.43;4.10;;;11.70;99.90;;;;;;4935311;29;20325;-86
2022/05/03 05:10:23;;;;;;;4.85;4.45;;;11.80;99.90;;;;;;4935166;29;20260;-85
2022/05/03 05:12:31;;;;;;;5.10;4.60;;;11.80;99.90;;;;;;4934797;29;20304;-85
2022/05/03 05:15:00;;;;;;;5.55;5.03;;;11.90;99.90;;;;;;4935095;29;20213;-85
2022/05/03 05:17:28;;;;;;;5.72;5.22;;;11.90;99.90;;;;;;4935445;29;20293;-85
2022/05/03 05:19:57;;;;;;;4.93;4.35;;;12.00;99.90;;;;;;4935572;29;20212;-85
2022/05/03 05:22:25;;;;;;;6.00;4.70;;;12.00;99.90;;;;;;4934419;29;20289;-85
2022/05/03 05:24:53;;;;;;;4.90;4.13;;;12.10;99.90;;;;;;4934979;29;20210;-85
2022/05/03 05:27:22;;;;;;;6.25;4.97;;;12.20;99.90;;;;;;4935500;29;20214;-85
2022/05/03 05:29:52;;;;;;;5.57;5.07;;;12.20;99.90;;;;;;4935297;29;20237;-85
2022/05/03 05:32:20;;;;;;;5.97;5.38;;;12.30;99.90;;;;;;4935222;29;20242;-85
2022/05/03 05:34:49;;;;;;;5.32;4.93;;;12.30;99.90;;;;;;4935095;29;20296;-85
2022/05/03 05:37:17;;;;;;;8.10;6.20;;;12.40;99.90;;;;;;4934973;29;20230;-85
2022/05/03 05:39:45;;;;;;;7.47;6.10;;;12.50;99.90;;;;;;4935111;29;20209;-86
2022/05/03 05:42:14;;;;;;;5.80;5.32;;;12.60;99.90;;;;;;4934750;29;20240;-86
2022/05/03 05:44:42;;;;;;;7.65;4.65;;;12.80;99.90;;;;;;4934936;29;20242;-85
2022/05/03 05:47:13;;;;;;;7.05;5.63;;;12.80;99.90;;;;;;4935063;29;20256;-85
2022/05/03 05:49:42;;;;;;;11.52;7.32;;;12.90;99.90;;;;;;4934723;29;20214;-86
2022/05/03 05:54:55;;;;;;;9.38;5.78;;;13.10;99.90;;;;;;4934863;29;20233;-85
2022/05/03 05:57:24;;;;;;;7.13;6.18;;;13.20;99.90;;;;;;4935295;29;20220;-85
2022/05/03 05:59:52;;;;;;;5.22;4.78;;;13.20;99.90;;;;;;4934985;29;20293;-85
2022/05/03 06:02:22;;;;;;;6.60;6.05;;;13.30;99.90;;;;;;4934516;29;20254;-85
2022/05/03 06:04:50;;;;;;;6.25;5.68;;;13.40;99.90;;;;;;4937114;29;20206;-85
2022/05/03 06:07:22;;;;;;;6.18;5.63;;;13.50;99.90;;;;;;4938548;29;20217;-86
2022/05/03 06:09:51;;;;;;;6.90;5.80;;;13.50;99.90;;;;;;4938288;29;20206;-86
2022/05/03 06:12:20;;;;;;;8.48;5.95;;;13.60;99.90;;;;;;4938139;29;20257;-85
2022/05/03 06:14:49;;;;;;;9.70;6.15;;;13.70;99.90;;;;;;4938131;29;20359;-85
2022/05/03 06:17:17;;;;;;;6.75;5.85;;;13.80;99.90;;;;;;4938177;29;20266;-86
2022/05/03 06:19:47;;;;;;;7.20;6.25;;;13.90;99.90;;;;;;4938213;29;20209;-86
2022/05/03 06:22:16;;;;;;;6.05;5.53;;;14.00;99.90;;;;;;4937620;29;20230;-85
2022/05/03 06:24:47;;;;;;;8.02;7.00;;;14.20;99.90;;;;;;4938315;29;20317;-86
2022/05/03 06:27:16;;;;;;;6.25;5.72;;;14.30;99.90;;;;;;4937943;29;20213;-85
2022/05/03 06:29:44;;;;;;;6.60;5.70;;;14.40;99.90;;;;;;4938058;29;20253;-85
2022/05/03 06:32:13;;;;;;;5.22;4.82;;;14.60;99.90;;;;;;4937601;29;20234;-85
2022/05/03 06:34:41;;;;;;;6.43;5.40;;;14.70;99.90;;;;;;4937844;29;20206;-86
2022/05/03 06:37:16;;;;;;;7.05;5.03;;;14.80;99.90;;;;;;4937413;29;20225;-85
2022/05/03 06:39:45;;;;;;;5.95;5.35;;;15.00;99.90;;;;;;4937841;29;20232;-85
2022/05/03 06:42:14;;;;;;;5.57;5.10;;;15.10;99.90;;;;;;4937084;29;20250;-85
2022/05/03 06:44:42;;;;;;;6.88;4.88;;;15.30;99.90;;;;;;4937411;29;20225;-85
2022/05/03 06:47:11;;;;;;;4.65;4.18;;;15.30;99.90;;;;;;4937551;29;20217;-85
2022/05/03 06:49:39;;;;;;;5.55;4.82;;;15.40;99.90;;;;;;4937964;29;20296;-85
2022/05/03 06:52:08;;;;;;;5.20;4.70;;;15.50;99.90;;;;;;4937158;29;20258;-85
2022/05/03 06:54:37;;;;;;;5.22;4.78;;;15.60;99.90;;;;;;4937387;29;20209;-85
2022/05/03 06:57:06;;;;;;;5.30;4.80;;;15.80;99.90;;;;;;4937595;29;20241;-85
2022/05/03 06:59:34;;;;;;;5.05;4.55;;;15.90;99.90;;;;;;4937604;29;20292;-85
2022/05/03 07:02:02;;;;;;;5.07;4.07;;;15.90;99.90;;;;;;4937246;29;20304;-86
2022/05/03 07:04:31;;;;;;;5.78;5.15;;;16.00;99.90;;;;;;4937153;29;20253;-85
2022/05/03 07:06:59;;;;;;;7.18;4.75;;;16.10;99.90;;;;;;4936848;29;20293;-85
2022/05/03 07:09:27;;;;;;;6.88;5.05;;;16.30;99.90;;;;;;4937147;29;20241;-85
2022/05/03 07:11:57;;;;;;;5.68;5.13;;;16.50;99.90;;;;;;4937001;29;20249;-85
2022/05/03 07:14:25;;;;;;;5.75;4.93;;;16.70;99.90;;;;;;4936820;29;20206;-85
2022/05/03 07:16:54;;;;;;;4.80;4.40;;;16.90;99.90;;;;;;4937097;29;20237;-85
2022/05/03 07:24:55;;;;;;;5.07;4.68;;;17.40;99.90;;;;;;4912921;29;20229;-85
2022/05/03 07:27:25;;;;;;;6.97;5.53;;;17.60;99.90;;;;;;4937059;29;20240;-85
2022/05/03 07:29:53;;;;;;;5.88;5.38;;;18.30;99.90;;;;;;4936740;29;20218;-85
2022/05/03 07:32:22;;;;;;;4.80;4.32;;;19.10;99.90;;;;;;4936768;29;20234;-85
2022/05/03 07:34:50;;;;;;;5.97;5.47;;;19.70;99.90;;;;;;4936788;29;20233;-85
2022/05/03 07:37:19;;;;;;;8.23;5.38;;;20.20;99.90;;;;;;4936177;28;20237;-85
2022/05/03 07:39:47;;;;;;;7.30;5.40;;;21.10;99.90;;;;;;4936606;29;20237;-85
2022/05/03 07:42:16;;;;;;;6.85;5.53;;;22.10;99.90;;;;;;4936365;29;20245;-86
2022/05/03 07:44:46;;;;;;;5.18;4.63;;;24.30;99.90;;;;;;4936318;29;20261;-85
2022/05/03 07:47:14;;;;;;;5.25;4.38;;;26.10;96.30;;;;;;4936519;29;20230;-85
2022/05/03 07:49:43;;;;;;;3.05;2.85;;;27.60;86.10;;;;;;4936427;29;20273;-85
2022/05/03 07:52:11;;;;;;;3.25;3.03;;;28.00;76.70;;;;;;4936357;29;20253;-86
2022/05/03 07:54:42;;;;;;;3.97;3.63;;;29.00;71.50;;;;;;4936627;29;20205;-86
2022/05/03 07:57:11;;;;;;;3.95;2.92;;;30.00;66.30;;;;;;4936247;29;20237;-85
2022/05/03 07:59:39;;;;;;;4.15;3.35;;;29.70;62.10;;;;;;4936433;29;20261;-85
2022/05/03 08:02:10;;;;;;;3.92;2.90;;;29.40;61.40;;;;;;4935832;29;20230;-85
2022/05/03 08:04:39;;;;;;;3.22;3.03;;;29.90;62.70;;;;;;4935914;29;20236;-85
2022/05/03 08:07:08;;;;;;;3.60;3.30;;;31.30;61.80;;;;;;4935872;29;20233;-85
2022/05/03 08:09:38;;;;;;;3.45;3.15;;;32.00;54.80;;;;;;4935815;29;20206;-85
2022/05/03 08:12:08;;;;;;;3.05;2.47;;;31.00;54.50;;;;;;4936174;29;20233;-85
2022/05/03 08:14:36;;;;;;;3.47;2.55;;;31.40;53.90;;;;;;4936021;29;20209;-86
2022/05/03 08:17:05;;;;;;;2.97;2.78;;;31.10;54.60;;;;;;4936048;29;20257;-85
2022/05/03 08:19:35;;;;;;;2.70;2.50;;;32.10;53.10;;;;;;4935926;29;20215;-86
2022/05/03 08:22:04;;;;;;;2.58;2.08;;;32.30;49.60;;;;;;4935707;29;20248;-85
2022/05/03 08:24:33;;;;;;;2.65;2.45;;;31.50;52.80;;;;;;4935510;29;20311;-85
2022/05/03 08:27:02;;;;;;;2.78;2.58;;;31.80;49.60;;;;;;4935017;29;20213;-86
2022/05/03 08:29:31;;;;;;;5.45;2.75;;;31.70;51.50;;;;;;4935869;29;20213;-85
2022/05/03 08:32:01;;;;;;;2.60;2.40;;;31.60;49.90;;;;;;4935558;29;20260;-85
2022/05/03 08:34:32;;;;;;;2.28;2.13;;;31.60;50.80;;;;;;4935798;29;20216;-85
2022/05/03 08:42:33;;;;;;;2.42;2.22;;;32.10;48.00;;;;;;4935473;29;20225;-85
2022/05/03 08:45:02;;;;;;;3.00;2.65;;;31.60;49.00;;;;;;4935328;29;20257;-85
2022/05/03 08:47:31;;;;;;;1.90;1.80;;;31.70;48.60;;;;;;4935528;29;20296;-85
2022/05/03 08:50:06;;;;;;;1.83;1.73;;;31.50;49.80;;;;;;4935619;29;20209;-86
2022/05/03 08:52:43;;;;;;;2.72;2.42;;;32.10;48.90;;;;;;4935533;29;20228;-85
2022/05/03 08:55:13;;;;;;;2.30;2.17;;;31.70;48.20;;;;;;4935565;29;20247;-85
2022/05/03 08:57:44;;;;;;;2.60;2.17;;;31.70;48.20;;;;;;4935941;29;20221;-85
2022/05/03 09:00:16;;;;;;;2.03;1.92;;;31.90;50.70;;;;;;4935910;29;20416;-86
2022/05/03 09:02:46;;;;;;;2.85;2.17;;;32.80;49.70;;;;;;4935335;29;20260;-86
2022/05/03 09:05:15;;;;;;;2.28;2.10;;;33.20;46.70;;;;;;4935229;29;20321;-85
2022/05/03 09:07:48;;;;;;;2.10;1.75;;;33.40;45.50;;;;;;4934708;29;20233;-85
2022/05/03 09:10:20;;;;;;;2.63;1.63;;;33.20;44.80;;;;;;4935218;29;20205;-86
2022/05/03 09:12:51;;;;;;;2.28;1.88;;;33.00;44.10;;;;;;4935599;29;20236;-85
2022/05/03 09:15:33;;;;;;;2.47;2.00;;;31.80;45.50;;;;;;4935478;29;20205;-85
2022/05/03 09:18:02;;;;;;;1.75;1.65;;;31.60;47.20;;;;;;4935376;29;20205;-85
2022/05/03 09:26:14;;;;;;;2.35;1.63;;;33.40;43.00;;;;;;4935259;29;20284;-85
2022/05/03 09:28:50;;;;;;;1.70;1.60;;;32.80;44.80;;;;;;4935292;29;20216;-85
2022/05/03 09:31:31;;;;;;;1.95;1.85;;;32.50;44.50;;;;;;4934884;29;20240;-85
2022/05/03 09:34:01;;;;;;;2.13;1.92;;;31.80;43.60;;;;;;4935070;29;20209;-86
2022/05/03 09:36:41;;;;;;;1.98;1.88;;;31.50;44.40;;;;;;4935007;29;20205;-85
2022/05/03 09:39:33;;;;;;;5.13;1.42;;;31.40;45.40;;;;;;4936760;29;20205;-85
2022/05/03 09:42:07;;;;;;;1.80;1.70;;;31.50;46.00;;;;;;4938598;29;20281;-85
2022/05/03 09:44:37;;;;;;;1.75;1.65;;;31.50;43.70;;;;;;4938599;29;20217;-85
2022/05/03 09:47:12;;;;;;;1.38;1.27;;;30.70;43.10;;;;;;4938594;29;20213;-85
2022/05/03 09:49:42;;;;;;;2.15;1.95;;;30.50;44.50;;;;;;4939110;29;20272;-85
2022/05/03 09:52:27;;;;;;;1.83;1.73;;;30.30;43.10;;;;;;4938214;29;20252;-86
2022/05/03 09:55:03;;;;;;;2.55;1.73;;;30.30;45.10;;;;;;4938812;29;20201;-86
2022/05/03 09:57:35;;;;;;;2.25;1.85;;;30.00;44.10;;;;;;4938680;29;20209;-85
2022/05/03 10:00:05;;;;;;;3.55;2.13;;;30.50;43.80;;;;;;4938170;29;20258;-85
2022/05/03 10:02:35;;;;;;;3.80;1.75;;;30.90;45.90;;;;;;4938340;29;20225;-86
2022/05/03 10:05:08;;;;;;;2.97;2.10;;;31.50;43.00;;;;;;4938435;29;20232;-85
2022/05/03 10:07:38;;;;;;;3.05;2.00;;;31.70;41.80;;;;;;4938056;29;20209;-86
2022/05/03 10:10:10;;;;;;;1.92;1.83;;;31.20;42.00;;;;;;4926095;29;20257;-87
2022/05/03 10:12:39;;;;;;;2.45;2.10;;;30.90;40.50;;;;;;4934781;29;20232;-86
2022/05/03 10:15:08;;;;;;;1.95;1.85;;;30.90;42.90;;;;;;4934116;29;20357;-86
2022/05/03 10:20:39;;;;;;;1.75;1.65;;;30.30;41.50;;;;;;4919985;29;20218;-86
2022/05/03 10:23:21;;;;;;;1.80;1.70;;;30.00;44.50;;;;;;4936792;29;20309;-86
2022/05/03 10:25:58;;;;;;;1.60;1.50;;;30.20;44.20;;;;;;4932282;29;20289;-86
2022/05/03 10:29:06;;;;;;;1.65;1.55;;;30.30;44.40;;;;;;4938554;29;20265;-86
2022/05/03 10:31:54;;;;;;;2.42;2.22;;;30.40;45.10;;;;;;4926336;29;20201;-87
2022/05/03 10:34:42;;;;;;;1.88;1.77;;;31.00;44.40;;;;;;4938960;29;20206;-87
2022/05/03 10:37:12;;;;;;;2.28;1.95;;;31.40;43.40;;;;;;4930139;29;20238;-86
2022/05/03 10:39:54;;;;;;;2.15;1.98;;;31.30;42.90;;;;;;4919448;29;20206;-87
2022/05/03 10:42:26;;;;;;;3.03;1.90;;;31.70;44.60;;;;;;4927471;29;20225;-86
2022/05/03 10:45:01;;;;;;;2.00;1.90;;;31.70;43.10;;;;;;4938124;29;20257;-86
2022/05/03 10:47:53;;;;;;;1.90;1.70;;;31.60;42.90;;;;;;4926565;29;20209;-86
2022/05/03 10:50:33;;;;;;;3.33;1.55;;;31.20;42.00;;;;;;4918902;29;20213;-86
2022/05/03 10:53:22;;;;;;;1.90;1.70;;;30.90;43.20;;;;;;4934506;29;20218;-85
2022/05/03 10:56:19;;;;;;;3.03;2.08;;;31.20;43.10;;;;;;4925603;29;20206;-85
2022/05/03 10:59:13;;;;;;;1.60;1.50;;;31.70;44.40;;;;;;4919568;29;20213;-85
2022/05/03 11:02:10;;;;;;;1.80;1.70;;;32.10;43.10;;;;;;4925088;29;20253;-86
2022/05/03 11:05:14;;;;;;;3.75;1.63;;;32.10;40.20;;;;;;4937958;29;20258;-86
2022/05/03 11:08:17;;;;;;;2.42;1.70;;;31.70;41.40;;;;;;4921333;29;20205;-86
2022/05/03 11:10:46;;;;;;;2.20;1.42;;;31.90;41.50;;;;;;4918763;29;20222;-86
2022/05/03 11:13:37;;;;;;;1.83;1.70;;;31.90;39.30;;;;;;4923227;29;20253;-86
2022/05/03 11:16:25;;;;;;;3.42;1.98;;;31.80;40.70;;;;;;4921553;29;20202;-84
2022/05/03 11:18:55;;;;;;;1.45;1.35;;;31.70;42.00;;;;;;4918811;29;20221;-84
2022/05/03 11:21:33;;;;;;;1.80;1.70;;;31.90;42.20;;;;;;4918252;29;20202;-85
2022/05/03 11:24:05;;;;;;;2.92;2.03;;;32.30;41.90;;;;;;4918235;29;20274;-84
2022/05/03 11:26:47;;;;;;;1.70;1.60;;;32.20;40.50;;;;;;4918283;29;20222;-85
2022/05/03 11:29:16;;;;;;;2.00;1.70;;;32.50;41.50;;;;;;4918668;29;20210;-84
2022/05/03 11:31:49;;;;;;;1.65;1.52;;;32.50;41.80;;;;;;4918021;29;20226;-85
2022/05/03 11:34:18;;;;;;;2.30;1.80;;;32.30;40.40;;;;;;4918591;29;20294;-85
2022/05/03 11:36:50;;;;;;;1.60;1.50;;;31.30;38.30;;;;;;4917808;29;20294;-84
2022/05/03 11:39:19;;;;;;;1.75;1.63;;;31.20;40.90;;;;;;4918158;29;20230;-84
2022/05/03 11:41:48;;;;;;;1.83;1.73;;;31.10;39.80;;;;;;4917890;29;20250;-84
2022/05/03 11:44:18;;;;;;;1.88;1.67;;;30.80;39.10;;;;;;4917944;29;20264;-85
2022/05/03 11:46:48;;;;;;;6.65;1.90;;;30.80;39.30;;;;;;4917454;29;20261;-84
2022/05/03 11:49:18;;;;;;;1.23;1.17;;;30.60;39.70;;;;;;4917504;29;20290;-84
2022/05/03 11:57:24;;;;;;;4.07;1.45;;;31.30;40.00;;;;;;4926693;29;20280;-84
2022/05/03 11:59:55;;;;;;;1.70;1.60;;;30.80;43.00;;;;;;4917889;29;20239;-85
2022/05/03 12:02:36;;;;;;;2.65;2.10;;;31.00;41.10;;;;;;4916743;29;20242;-84
2022/05/03 12:05:19;;;;;;;2.17;1.85;;;31.10;41.50;;;;;;4917318;29;20220;-84
2022/05/03 12:07:49;;;;;;;1.70;1.60;;;31.00;39.90;;;;;;4917083;29;20230;-84
2022/05/03 12:10:24;;;;;;;1.58;1.48;;;30.60;41.20;;;;;;4931526;29;20234;-84
2022/05/03 12:13:16;;;;;;;2.00;1.90;;;30.50;40.80;;;;;;4936694;29;20311;-83
2022/05/03 12:15:47;;;;;;;2.63;1.92;;;30.30;40.70;;;;;;4934053;29;20274;-84
2022/05/03 12:18:19;;;;;;;1.90;1.80;;;29.80;42.80;;;;;;4936839;29;20210;-85
2022/05/03 12:20:49;;;;;;;1.92;1.83;;;28.80;43.20;;;;;;4936150;29;20233;-85
2022/05/03 12:23:19;;;;;;;1.80;1.70;;;27.90;42.90;;;;;;4936787;29;20256;-84
2022/05/03 12:25:50;;;;;;;2.55;2.30;;;27.20;45.20;;;;;;4936582;29;20296;-83
2022/05/03 12:28:19;;;;;;;2.17;2.08;;;25.40;49.30;;;;;;4933760;29;20206;-84
2022/05/03 12:30:57;;;;;;;2.58;2.38;;;24.20;51.90;;;;;;4932608;29;20210;-88
2022/05/03 12:33:29;;;;;;;2.47;2.28;;;23.70;53.70;;;;;;4917406;29;20238;-87
2022/05/03 12:35:58;;;;;;;2.20;1.95;;;23.30;53.40;;;;;;4917627;29;20226;-86
2022/05/03 12:38:27;;;;;;;2.85;2.45;;;22.90;53.90;;;;;;4916503;29;20198;-86
2022/05/03 12:40:57;;;;;;;2.58;2.38;;;22.50;54.10;;;;;;4916592;29;20241;-86
2022/05/03 12:43:28;;;;;;;3.38;2.60;;;22.40;55.00;;;;;;4933905;29;20234;-82
2022/05/03 12:45:58;;;;;;;4.47;3.95;;;22.30;54.40;;;;;;4918195;29;20266;-84
2022/05/03 12:48:33;;;;;;;3.20;2.63;;;22.40;54.80;;;;;;4916542;29;20219;-85
2022/05/03 12:51:03;;;;;;;1.60;1.50;;;22.50;54.30;;;;;;4928416;29;20211;-84
2022/05/03 12:53:33;;;;;;;1.63;1.52;;;22.30;54.70;;;;;;4936411;29;20293;-84
2022/05/03 12:59:04;;;;;;;2.78;1.50;;;21.80;56.70;;;;;;4916539;29;20293;-84
2022/05/03 13:01:33;;;;;;;1.83;1.73;;;21.40;57.90;;;;;;4916714;29;20230;-85
2022/05/03 13:04:03;;;;;;;2.15;1.92;;;21.50;58.00;;;;;;4916827;29;20202;-85
2022/05/03 13:06:32;;;;;;;1.60;1.50;;;21.50;58.80;;;;;;4916864;29;20278;-85
2022/05/03 13:09:00;;;;;;;1.63;1.52;;;21.40;59.00;;;;;;4916466;29;20206;-85
2022/05/03 13:11:28;;;;;;;1.65;1.55;;;21.40;59.00;;;;;;4916206;29;20241;-85
2022/05/03 13:13:57;;;;;;;2.15;1.55;;;21.20;58.90;;;;;;4928142;29;20229;-85
2022/05/03 13:16:25;;;;;;;1.60;1.50;;;21.20;59.30;;;;;;4925324;29;20208;-85
2022/05/03 13:18:54;;;;;;;5.03;2.22;;;21.20;58.70;;;;;;4917682;29;20214;-85
2022/05/03 13:21:36;;;;;;;1.60;1.50;;;21.40;58.00;;;;;;4930650;29;20281;-84
2022/05/03 13:24:06;;;;;;;1.73;1.63;;;21.70;57.20;;;;;;4920824;29;20217;-84
2022/05/03 13:26:35;;;;;;;1.80;1.70;;;21.90;56.30;;;;;;4926704;29;20245;-84
2022/05/03 13:29:07;;;;;;;2.95;1.88;;;22.00;54.90;;;;;;4939433;29;20219;-84
2022/05/03 13:31:37;;;;;;;2.20;1.95;;;22.10;54.80;;;;;;4939367;29;20209;-84
2022/05/03 13:34:06;;;;;;;2.33;2.00;;;22.10;55.60;;;;;;4939623;29;20206;-83
2022/05/03 13:42:09;;;;;;;1.67;1.58;;;22.40;54.90;;;;;;4919419;29;20327;-86
2022/05/03 13:44:38;;;;;;;2.63;1.83;;;22.50;55.10;;;;;;4920130;29;20274;-85
2022/05/03 13:47:08;;;;;;;1.58;1.48;;;22.50;55.00;;;;;;4919938;29;20230;-85
2022/05/03 13:49:38;;;;;;;1.55;1.45;;;22.60;54.60;;;;;;4924012;29;20195;-85
2022/05/03 13:52:08;;;;;;;1.65;1.55;;;22.50;55.50;;;;;;4919434;29;20246;-85
2022/05/03 13:54:37;;;;;;;1.67;1.58;;;22.50;55.20;;;;;;4925879;29;20210;-83
2022/05/03 13:57:06;;;;;;;1.80;1.40;;;22.50;55.00;;;;;;4939035;29;20254;-84
2022/05/03 13:59:35;;;;;;;2.10;1.90;;;22.10;54.50;;;;;;4939389;29;20237;-85
2022/05/03 14:02:04;;;;;;;1.95;1.83;;;22.10;55.20;;;;;;4937965;29;20233;-84